Time;durP1;ratioP1;P1;durP2;ratioP2;P2;SDS_P1;SDS_P2;PMS_P1;PMS_P2;Temp;Humidity;BMP_temperature;BMP_pressure;BME280_temperature;BME280_humidity;BME280_pressure;Samples;Min_cycle;Max_cycle;Signal;HPM_P1;HPM_P2
2021/05/06 00:32:29;;;;;;;3.28;1.88;;;5.90;81.00;;;;;;2084922;28;20039;-81
2021/05/06 00:33:30;;;;;;;2.65;1.80;;;5.90;80.60;;;;;;2087696;28;20021;-81
2021/05/06 00:34:30;;;;;;;3.45;2.03;;;5.80;80.60;;;;;;2080254;28;20091;-81
2021/05/06 00:35:34;;;;;;;2.90;1.98;;;5.80;80.70;;;;;;2079524;28;20062;-81
2021/05/06 00:36:36;;;;;;;3.38;2.00;;;5.80;80.80;;;;;;2085844;28;20116;-80
2021/05/06 00:39:07;;;;;;;4.22;2.20;;;5.80;81.00;;;;;;2059484;28;20038;-82
2021/05/06 00:40:11;;;;;;;3.22;1.90;;;5.90;81.10;;;;;;2089954;28;20036;-81
2021/05/06 00:42:29;;;;;;;3.10;2.10;;;5.90;81.30;;;;;;2085256;28;20033;-81
2021/05/06 01:01:43;;;;;;;3.72;2.45;;;5.90;82.00;;;;;;2082949;28;20043;-80
2021/05/06 01:03:03;;;;;;;3.42;2.40;;;5.90;82.00;;;;;;2086736;28;20025;-80
2021/05/06 01:06:23;;;;;;;3.35;2.22;;;5.80;81.90;;;;;;2083318;28;20286;-81
2021/05/06 01:07:42;;;;;;;3.60;2.30;;;5.90;81.90;;;;;;2096183;28;20032;-81
2021/05/06 01:08:50;;;;;;;3.08;2.10;;;5.90;81.90;;;;;;2089993;28;20037;-80
2021/05/06 01:10:06;;;;;;;3.35;2.20;;;5.80;81.90;;;;;;2089651;28;20033;-81
2021/05/06 01:11:21;;;;;;;3.65;2.55;;;5.90;82.00;;;;;;2082331;28;20439;-81
2021/05/06 01:12:22;;;;;;;4.18;2.33;;;5.90;82.10;;;;;;2073057;28;20026;-81
2021/05/06 01:13:27;;;;;;;4.78;2.60;;;5.90;82.10;;;;;;2081632;28;20391;-80
2021/05/06 01:14:28;;;;;;;3.95;2.58;;;5.90;82.20;;;;;;2094039;28;20047;-79
2021/05/06 01:15:28;;;;;;;4.22;2.80;;;5.90;82.30;;;;;;2094368;28;20555;-80
2021/05/06 01:16:29;;;;;;;4.20;2.60;;;5.90;82.30;;;;;;2084109;28;20160;-80
2021/05/06 01:17:30;;;;;;;5.05;2.83;;;5.90;82.40;;;;;;2075442;28;20065;-80
2021/05/06 01:18:30;;;;;;;4.05;2.80;;;5.90;82.50;;;;;;2071198;28;20400;-80
2021/05/06 01:19:31;;;;;;;3.40;2.58;;;5.90;82.60;;;;;;2080329;28;20128;-80
2021/05/06 01:20:32;;;;;;;4.30;3.03;;;5.90;82.60;;;;;;2078256;28;20023;-80
2021/05/06 01:21:32;;;;;;;3.92;2.88;;;5.90;82.60;;;;;;2072075;28;20038;-80
2021/05/06 01:22:33;;;;;;;3.97;2.88;;;5.90;82.60;;;;;;2079865;28;20022;-81
2021/05/06 01:23:35;;;;;;;4.35;3.05;;;6.00;82.80;;;;;;2079510;28;20102;-80
2021/05/06 01:24:36;;;;;;;4.28;3.10;;;5.90;82.70;;;;;;2079110;28;20142;-80
2021/05/06 01:25:37;;;;;;;4.07;2.70;;;5.90;82.80;;;;;;2079246;28;20021;-79
2021/05/06 01:27:42;;;;;;;4.90;2.90;;;5.90;82.80;;;;;;2079014;28;20036;-80
2021/05/06 01:28:11;;;;;;;4.43;3.00;;;5.90;82.90;;;;;;2077945;28;20409;-79
2021/05/06 01:30:41;;;;;;;;;;;5.90;82.80;;;;;;2064449;28;20053;-80
2021/05/06 01:31:50;;;;;;;4.85;2.97;;;5.90;82.70;;;;;;2089030;28;19967;-80
2021/05/06 01:32:57;;;;;;;4.05;2.50;;;5.90;82.60;;;;;;2085185;28;20033;-80
2021/05/06 01:34:14;;;;;;;4.15;2.72;;;5.90;82.60;;;;;;2082014;28;20040;-80
2021/05/06 01:36:49;;;;;;;4.22;2.60;;;5.80;82.70;;;;;;2067921;28;20067;-79
2021/05/06 01:40:21;;;;;;;3.85;2.30;;;5.90;82.80;;;;;;2094936;28;20033;-80
2021/05/06 01:49:49;;;;;;;3.75;2.80;;;5.80;83.20;;;;;;2088077;28;20043;-80
2021/05/06 01:58:38;;;;;;;3.67;2.60;;;5.80;83.40;;;;;;2094067;28;20503;-79
2021/05/06 01:59:52;;;;;;;4.57;3.00;;;5.80;83.30;;;;;;2094015;28;20033;-79
2021/05/06 02:00:58;;;;;;;4.00;2.90;;;5.70;83.30;;;;;;2086561;28;20040;-80
2021/05/06 02:01:59;;;;;;;4.78;3.17;;;5.70;83.40;;;;;;2070768;28;20022;-79
2021/05/06 02:03:01;;;;;;;4.68;2.95;;;5.70;83.50;;;;;;2065819;28;20120;-79
2021/05/06 02:04:01;;;;;;;3.97;2.97;;;5.70;83.60;;;;;;2076382;28;20487;-80
2021/05/06 02:05:04;;;;;;;4.70;3.50;;;5.80;83.70;;;;;;2090943;28;20132;-80
2021/05/06 02:06:05;;;;;;;4.65;3.22;;;5.70;83.80;;;;;;2093859;28;20107;-80
2021/05/06 02:07:05;;;;;;;4.95;3.50;;;5.70;83.80;;;;;;2086424;28;20033;-80
2021/05/06 02:08:06;;;;;;;4.60;3.40;;;5.70;83.90;;;;;;2077673;28;20029;-80
2021/05/06 02:09:06;;;;;;;3.80;2.75;;;5.70;83.90;;;;;;2084896;28;20117;-80
2021/05/06 02:10:09;;;;;;;4.70;3.40;;;5.80;84.60;;;;;;2077841;28;20109;-79
2021/05/06 02:11:10;;;;;;;4.68;3.45;;;5.70;84.00;;;;;;2076255;28;20043;-80
2021/05/06 02:12:12;;;;;;;4.63;3.20;;;5.70;84.00;;;;;;2090235;28;20075;-81
2021/05/06 02:13:15;;;;;;;4.40;3.00;;;5.70;84.10;;;;;;2086241;28;20076;-80
2021/05/06 02:14:15;;;;;;;4.32;2.95;;;5.80;84.10;;;;;;2091938;28;21726;-80
2021/05/06 02:15:29;;;;;;;4.05;3.03;;;5.70;84.10;;;;;;2089421;28;20025;-81
2021/05/06 02:16:34;;;;;;;4.15;3.00;;;5.70;84.10;;;;;;2079652;28;20034;-81
2021/05/06 02:17:35;;;;;;;5.28;3.42;;;5.70;84.10;;;;;;2087633;28;20032;-80
2021/05/06 02:18:37;;;;;;;5.18;3.55;;;5.70;84.10;;;;;;2087433;28;20390;-80
2021/05/06 02:19:40;;;;;;;5.43;3.70;;;5.70;84.20;;;;;;2080787;28;20041;-80
2021/05/06 02:20:41;;;;;;;4.53;3.30;;;5.70;84.30;;;;;;2068979;28;20018;-80
2021/05/06 02:21:42;;;;;;;4.78;3.42;;;5.70;84.30;;;;;;2087773;28;20060;-80
2021/05/06 02:22:47;;;;;;;4.72;3.45;;;5.60;84.30;;;;;;2077323;28;20476;-80
2021/05/06 02:23:48;;;;;;;4.00;2.80;;;5.60;84.40;;;;;;2073247;28;20037;-81
2021/05/06 02:24:48;;;;;;;4.20;3.20;;;5.60;84.40;;;;;;2080988;28;20534;-80
2021/05/06 02:25:49;;;;;;;4.07;3.05;;;5.60;84.40;;;;;;2080607;28;21561;-80
2021/05/06 02:26:50;;;;;;;4.50;3.30;;;5.60;84.40;;;;;;2078821;28;20051;-80
2021/05/06 02:27:50;;;;;;;4.43;3.15;;;5.60;84.50;;;;;;2085465;28;20033;-80
2021/05/06 02:28:52;;;;;;;5.00;3.50;;;5.60;84.50;;;;;;2075241;28;20492;-81
2021/05/06 02:29:53;;;;;;;4.82;3.33;;;5.60;85.10;;;;;;2080313;28;20036;-80
2021/05/06 02:30:53;;;;;;;4.07;3.13;;;5.60;84.50;;;;;;2080009;28;20117;-81
2021/05/06 02:31:54;;;;;;;4.78;3.15;;;5.60;84.60;;;;;;2070166;28;20069;-81
2021/05/06 02:32:55;;;;;;;6.20;3.45;;;5.60;84.70;;;;;;2073037;28;20361;-81
2021/05/06 02:33:55;;;;;;;4.70;3.22;;;5.60;84.70;;;;;;2080798;28;20068;-81
2021/05/06 02:34:57;;;;;;;5.10;3.28;;;5.60;84.70;;;;;;2080812;28;20176;-81
2021/05/06 02:35:58;;;;;;;4.88;3.38;;;5.60;84.80;;;;;;2074846;28;20454;-81
2021/05/06 02:36:59;;;;;;;4.93;3.30;;;5.60;84.80;;;;;;2077603;28;20037;-80
2021/05/06 02:38:00;;;;;;;4.40;3.08;;;5.60;84.80;;;;;;2087923;28;20017;-81
2021/05/06 02:39:01;;;;;;;4.35;2.88;;;5.60;84.80;;;;;;2092255;28;20365;-81
2021/05/06 02:40:04;;;;;;;4.30;3.13;;;5.60;84.90;;;;;;2096947;28;20027;-81
2021/05/06 02:41:05;;;;;;;4.18;3.10;;;5.60;84.80;;;;;;2093768;28;20533;-82
2021/05/06 02:42:06;;;;;;;4.38;3.10;;;5.60;84.80;;;;;;2094278;28;20024;-81
2021/05/06 02:43:06;;;;;;;5.18;3.40;;;5.60;84.80;;;;;;2084868;28;20626;-81
2021/05/06 02:44:07;;;;;;;4.38;2.85;;;5.60;84.80;;;;;;2077998;28;20072;-80
2021/05/06 02:45:09;;;;;;;4.75;3.42;;;5.60;84.80;;;;;;2068600;28;20030;-81
2021/05/06 02:46:09;;;;;;;3.80;2.88;;;5.60;84.90;;;;;;2070027;28;20062;-81
2021/05/06 02:47:10;;;;;;;3.90;2.95;;;5.70;84.90;;;;;;2073696;28;20018;-81
2021/05/06 02:48:11;;;;;;;5.10;3.17;;;5.60;84.90;;;;;;2080723;28;20470;-81
2021/05/06 02:49:12;;;;;;;4.45;3.28;;;5.60;84.90;;;;;;2089527;28;20422;-81
2021/05/06 02:50:14;;;;;;;3.90;2.97;;;5.70;84.90;;;;;;2081554;28;20303;-81
2021/05/06 02:51:15;;;;;;;5.50;3.50;;;5.70;84.90;;;;;;2078981;28;20230;-81
2021/05/06 02:52:40;;;;;;;4.85;3.10;;;5.70;84.90;;;;;;2081394;28;20080;-81
2021/05/06 02:53:38;;;;;;;;;;;5.60;84.90;;;;;;2091139;28;20131;-81
2021/05/06 02:54:45;;;;;;;5.28;2.78;;;5.60;84.70;;;;;;2094124;28;20328;-81
2021/05/06 02:57:22;;;;;;;4.25;3.00;;;5.60;84.70;;;;;;2090990;28;20133;-80
2021/05/06 03:03:43;;;;;;;3.65;2.53;;;5.60;84.80;;;;;;2090957;28;20027;-80
2021/05/06 03:04:46;;;;;;;4.50;2.90;;;5.50;84.70;;;;;;2093443;28;20078;-80
2021/05/06 03:05:52;;;;;;;4.40;3.10;;;5.60;84.90;;;;;;2082425;28;20037;-80
2021/05/06 03:06:59;;;;;;;4.70;2.83;;;5.60;84.90;;;;;;2069995;28;20057;-80
2021/05/06 03:09:11;;;;;;;4.88;3.20;;;5.50;84.90;;;;;;2086428;28;20040;-81
2021/05/06 03:14:08;;;;;;;4.60;3.30;;;5.50;85.10;;;;;;2084713;28;20416;-80
2021/05/06 03:20:56;;;;;;;5.30;3.15;;;5.50;85.20;;;;;;2090032;28;20049;-80
2021/05/06 03:22:57;;;;;;;4.25;2.90;;;5.30;85.20;;;;;;2083953;28;20025;-80
2021/05/06 03:23:58;;;;;;;4.70;3.38;;;5.30;85.30;;;;;;2088478;28;20052;-81
2021/05/06 03:25:03;;;;;;;4.75;3.38;;;5.20;85.30;;;;;;2077429;28;20081;-81
2021/05/06 03:26:04;;;;;;;4.90;3.38;;;5.20;85.50;;;;;;2071468;28;20513;-81
2021/05/06 03:27:08;;;;;;;4.25;3.15;;;5.20;85.60;;;;;;2085542;28;20061;-81
2021/05/06 03:28:13;;;;;;;5.45;3.35;;;5.20;85.70;;;;;;2083255;28;20028;-80
2021/05/06 03:29:20;;;;;;;4.47;3.28;;;5.20;85.80;;;;;;2085123;28;20025;-81
2021/05/06 03:35:28;;;;;;;4.60;3.40;;;5.10;85.90;;;;;;2088541;28;20090;-80
2021/05/06 03:47:34;;;;;;;4.80;3.53;;;5.00;86.00;;;;;;2085879;28;20497;-81
2021/05/06 04:18:37;;;;;;;5.38;4.03;;;4.80;86.10;;;;;;2063464;28;20473;-81
2021/05/06 04:22:21;;;;;;;5.80;4.13;;;4.80;86.20;;;;;;2070831;28;20593;-81
2021/05/06 04:26:22;;;;;;;5.82;4.35;;;4.90;86.10;;;;;;2084797;28;20476;-81
2021/05/06 04:27:22;;;;;;;5.80;4.50;;;4.90;86.10;;;;;;2073240;28;20546;-81
2021/05/06 04:35:56;;;;;;;6.68;5.05;;;5.10;85.80;;;;;;2077285;28;20079;-81
2021/05/06 04:37:03;;;;;;;6.10;4.70;;;5.10;85.70;;;;;;2078618;28;20025;-80
2021/05/06 04:38:08;;;;;;;6.00;4.47;;;5.10;85.70;;;;;;2085269;28;20033;-80
2021/05/06 04:39:13;;;;;;;6.20;4.70;;;5.20;85.80;;;;;;2088782;28;20017;-81
2021/05/06 04:40:38;;;;;;;6.70;4.93;;;5.10;85.80;;;;;;2083497;28;20537;-80
2021/05/06 04:41:57;;;;;;;6.28;4.70;;;5.10;85.90;;;;;;2078872;28;20030;-81
2021/05/06 04:54:48;;;;;;;7.50;5.22;;;5.30;85.80;;;;;;2088415;28;20119;-80
2021/05/06 04:55:52;;;;;;;6.90;5.07;;;5.30;85.80;;;;;;2087601;28;20040;-80
2021/05/06 05:04:45;;;;;;;6.18;4.43;;;5.50;85.50;;;;;;2094086;28;20008;-81
2021/05/06 05:05:46;;;;;;;6.57;4.80;;;5.50;85.30;;;;;;2087917;28;20092;-81
2021/05/06 05:07:06;;;;;;;6.13;4.85;;;5.60;85.30;;;;;;2088385;28;20063;-80
2021/05/06 05:08:11;;;;;;;6.40;4.45;;;5.60;85.30;;;;;;2085626;28;20059;-80
2021/05/06 05:23:42;;;;;;;7.38;4.97;;;5.60;85.20;;;;;;2088742;28;20116;-83
2021/05/06 05:25:46;;;;;;;6.50;4.80;;;5.70;85.40;;;;;;2070423;28;20603;-83
2021/05/06 05:26:48;;;;;;;7.32;5.32;;;5.60;85.50;;;;;;2072290;28;20066;-82
2021/05/06 05:27:49;;;;;;;6.63;5.18;;;5.60;85.50;;;;;;2070528;28;20030;-83
2021/05/06 05:28:49;;;;;;;7.72;4.93;;;5.60;85.60;;;;;;2071406;28;20029;-83
2021/05/06 05:29:51;;;;;;;7.25;5.47;;;5.60;85.70;;;;;;2068233;28;20045;-82
2021/05/06 05:30:52;;;;;;;6.90;5.20;;;5.70;85.80;;;;;;2076925;28;20108;-83
2021/05/06 05:31:52;;;;;;;7.68;5.70;;;5.70;85.80;;;;;;2078971;28;20495;-83
2021/05/06 05:32:53;;;;;;;6.97;5.45;;;5.70;85.90;;;;;;2088187;28;20184;-83
2021/05/06 05:34:05;;;;;;;7.68;5.70;;;5.70;85.90;;;;;;2092506;28;20062;-83
2021/05/06 05:35:17;;;;;;;7.05;5.18;;;5.70;85.90;;;;;;2083526;28;20033;-84
2021/05/06 05:36:19;;;;;;;6.88;5.60;;;5.70;85.90;;;;;;2066454;28;20049;-84
2021/05/06 05:37:22;;;;;;;7.53;5.75;;;5.70;85.90;;;;;;2062876;28;20026;-84
2021/05/06 05:39:40;;;;;;;7.55;5.75;;;5.70;85.90;;;;;;2092674;28;20499;-84
2021/05/06 05:54:58;;;;;;;9.60;6.25;;;6.10;85.60;;;;;;2084990;28;20052;-82
2021/05/06 05:55:58;;;;;;;8.13;6.30;;;6.10;85.50;;;;;;2078656;28;20081;-83
2021/05/06 05:57:00;;;;;;;8.30;6.95;;;6.10;85.50;;;;;;2071407;28;20030;-82
2021/05/06 05:58:01;;;;;;;9.63;6.68;;;6.10;85.50;;;;;;2085952;28;20526;-82
2021/05/06 05:59:02;;;;;;;8.93;6.97;;;6.10;85.50;;;;;;2095833;28;20048;-82
2021/05/06 06:00:04;;;;;;;8.35;6.75;;;6.20;85.50;;;;;;2077243;28;20052;-82
2021/05/06 06:01:05;;;;;;;9.60;7.60;;;6.20;85.50;;;;;;2070585;28;20030;-83
2021/05/06 06:02:06;;;;;;;9.57;7.60;;;6.20;85.40;;;;;;2075556;28;20070;-83
2021/05/06 06:03:07;;;;;;;8.93;7.50;;;6.30;85.50;;;;;;2087032;28;20021;-83
2021/05/06 06:04:07;;;;;;;10.00;7.78;;;6.30;85.50;;;;;;2093518;28;20021;-83
2021/05/06 06:05:09;;;;;;;11.15;8.18;;;6.30;85.40;;;;;;2084906;28;20124;-83
2021/05/06 06:06:10;;;;;;;9.95;8.15;;;6.30;85.40;;;;;;2086432;28;20018;-80
2021/05/06 06:07:10;;;;;;;10.32;8.02;;;6.30;85.30;;;;;;2088871;28;20116;-80
2021/05/06 06:08:11;;;;;;;10.02;8.13;;;6.40;85.40;;;;;;2063724;28;20033;-80
2021/05/06 06:09:11;;;;;;;10.00;8.25;;;6.30;85.40;;;;;;2068962;28;20066;-78
2021/05/06 06:10:12;;;;;;;10.63;8.40;;;6.30;85.40;;;;;;2069688;28;20030;-79
2021/05/06 06:11:13;;;;;;;11.40;8.50;;;6.40;85.40;;;;;;2068752;28;20042;-80
2021/05/06 06:12:14;;;;;;;10.60;8.90;;;6.40;85.50;;;;;;2072274;28;20022;-82
2021/05/06 06:13:14;;;;;;;11.68;9.38;;;6.40;85.50;;;;;;2072362;28;20037;-81
2021/05/06 06:14:21;;;;;;;11.05;8.95;;;6.40;85.50;;;;;;2079791;28;20055;-82
2021/05/06 06:15:34;;;;;;;11.18;9.00;;;6.40;85.50;;;;;;2073143;28;20124;-81
2021/05/06 06:16:37;;;;;;;11.57;9.32;;;6.40;85.40;;;;;;2085739;28;20052;-79
2021/05/06 06:17:43;;;;;;;11.15;8.93;;;6.40;85.40;;;;;;2097030;28;20036;-79
2021/05/06 06:19:49;;;;;;;11.45;9.63;;;6.40;85.50;;;;;;2079137;28;20041;-79
2021/05/06 06:20:59;;;;;;;11.50;9.65;;;6.40;85.50;;;;;;2092782;28;20445;-79
2021/05/06 06:22:03;;;;;;;12.50;9.73;;;6.40;85.50;;;;;;2076781;28;20030;-79
2021/05/06 06:23:04;;;;;;;12.63;10.13;;;6.40;85.50;;;;;;2081929;28;20033;-79
2021/05/06 06:24:06;;;;;;;11.35;9.55;;;6.40;85.50;;;;;;2087433;28;20144;-79
2021/05/06 06:25:07;;;;;;;11.98;9.65;;;6.40;85.50;;;;;;2080526;28;20022;-82
2021/05/06 06:26:08;;;;;;;11.38;9.48;;;6.40;85.50;;;;;;2073529;28;20087;-81
2021/05/06 06:27:08;;;;;;;10.98;8.95;;;6.40;85.50;;;;;;2080780;28;20522;-81
2021/05/06 06:28:12;;;;;;;12.65;10.10;;;6.50;85.70;;;;;;2079267;28;20033;-81
2021/05/06 06:29:16;;;;;;;11.77;9.93;;;6.40;85.60;;;;;;2079779;28;20527;-81
2021/05/06 06:30:17;;;;;;;11.00;9.15;;;6.50;85.70;;;;;;2088666;28;20040;-81
2021/05/06 06:32:19;;;;;;;12.20;10.32;;;6.50;85.70;;;;;;2088663;28;20525;-82
2021/05/06 06:33:19;;;;;;;13.10;10.02;;;6.50;85.70;;;;;;2080323;28;20028;-82
2021/05/06 06:34:20;;;;;;;12.43;9.73;;;6.60;85.60;;;;;;2080556;28;20120;-81
2021/05/06 06:35:21;;;;;;;11.77;9.90;;;6.60;85.60;;;;;;2087828;28;20069;-81
2021/05/06 06:36:22;;;;;;;12.98;10.07;;;6.50;85.50;;;;;;2080469;28;20036;-81
2021/05/06 06:37:23;;;;;;;12.10;10.07;;;6.60;85.60;;;;;;2068037;28;20078;-81
2021/05/06 06:38:24;;;;;;;12.13;9.68;;;6.60;85.60;;;;;;2064266;28;20053;-82
2021/05/06 06:39:27;;;;;;;12.93;10.52;;;6.60;85.60;;;;;;2080712;28;20414;-81
2021/05/06 06:40:27;;;;;;;12.75;10.25;;;6.60;85.60;;;;;;2088531;28;20135;-81
2021/05/06 06:41:28;;;;;;;12.00;10.15;;;6.60;85.70;;;;;;2074433;28;20037;-82
2021/05/06 06:42:28;;;;;;;12.10;9.98;;;6.60;85.70;;;;;;2083018;28;20423;-82
2021/05/06 06:43:30;;;;;;;11.80;10.00;;;6.70;85.70;;;;;;2091061;28;20029;-82
2021/05/06 06:44:33;;;;;;;12.27;9.68;;;6.70;85.70;;;;;;2073534;28;20030;-81
2021/05/06 06:45:33;;;;;;;11.35;9.98;;;6.70;85.70;;;;;;2082649;28;20033;-81
2021/05/06 06:46:34;;;;;;;12.15;10.30;;;6.70;85.70;;;;;;2087418;28;20507;-79
2021/05/06 06:47:35;;;;;;;11.70;9.75;;;6.80;85.70;;;;;;2081449;28;20503;-79
2021/05/06 06:48:35;;;;;;;11.48;9.90;;;6.80;85.60;;;;;;2087902;28;20116;-79
2021/05/06 06:49:39;;;;;;;11.48;10.05;;;6.80;85.60;;;;;;2096609;28;20035;-79
2021/05/06 06:50:40;;;;;;;12.40;10.43;;;6.80;85.60;;;;;;2094003;28;20106;-78
2021/05/06 06:51:41;;;;;;;12.88;10.45;;;6.80;86.10;;;;;;2085563;28;20039;-82
2021/05/06 06:52:41;;;;;;;12.50;10.43;;;6.90;85.50;;;;;;2079195;28;20482;-82
2021/05/06 06:53:42;;;;;;;12.02;9.95;;;6.90;85.40;;;;;;2083887;28;20064;-82
2021/05/06 06:54:43;;;;;;;11.90;10.50;;;7.00;85.40;;;;;;2097547;28;20538;-82
2021/05/06 06:55:44;;;;;;;12.27;10.73;;;7.00;85.30;;;;;;2097610;28;20036;-82
2021/05/06 06:56:45;;;;;;;13.63;10.65;;;6.90;85.30;;;;;;2085397;28;20105;-82
2021/05/06 06:57:46;;;;;;;12.57;10.55;;;7.00;85.40;;;;;;2078790;28;20419;-83
2021/05/06 06:58:51;;;;;;;12.48;10.57;;;7.00;85.40;;;;;;2080688;28;20401;-82
2021/05/06 06:59:51;;;;;;;11.40;9.77;;;7.00;85.40;;;;;;2080040;28;20029;-82
2021/05/06 07:00:52;;;;;;;11.13;9.50;;;7.00;85.30;;;;;;2078972;28;20562;-82
2021/05/06 07:01:53;;;;;;;11.77;10.05;;;7.00;85.30;;;;;;2073915;28;20030;-82
2021/05/06 07:02:53;;;;;;;12.68;10.80;;;7.10;85.30;;;;;;2091500;28;20379;-80
2021/05/06 07:03:54;;;;;;;12.18;10.02;;;7.10;85.80;;;;;;2074822;28;20122;-80
2021/05/06 07:04:54;;;;;;;13.20;10.40;;;7.20;85.20;;;;;;2072659;28;20141;-80
2021/05/06 07:05:56;;;;;;;12.95;10.50;;;7.20;85.00;;;;;;2080345;28;20030;-79
2021/05/06 07:06:57;;;;;;;11.60;9.55;;;7.20;84.90;;;;;;2080520;28;20028;-82
2021/05/06 07:08:22;;;;;;;11.02;9.80;;;7.30;84.90;;;;;;2082074;28;20034;-81
2021/05/06 07:09:24;;;;;;;11.20;9.43;;;7.30;84.70;;;;;;2082039;28;20405;-82
2021/05/06 07:10:24;;;;;;;10.90;9.50;;;7.30;84.60;;;;;;2073998;28;20030;-82
2021/05/06 07:11:25;;;;;;;10.43;8.82;;;7.40;84.60;;;;;;2082185;28;20029;-80
2021/05/06 07:12:26;;;;;;;11.30;9.07;;;7.40;84.50;;;;;;2082519;28;20055;-79
2021/05/06 07:13:27;;;;;;;10.98;8.77;;;7.50;84.50;;;;;;2074509;28;20041;-79
2021/05/06 07:14:30;;;;;;;9.85;8.80;;;7.50;84.50;;;;;;2081813;28;20033;-80
2021/05/06 07:15:30;;;;;;;10.43;8.57;;;7.60;84.50;;;;;;2072240;28;20046;-79
2021/05/06 07:16:32;;;;;;;10.77;8.55;;;7.60;84.30;;;;;;2074197;28;20025;-80
2021/05/06 07:17:33;;;;;;;9.77;8.77;;;7.70;84.30;;;;;;2082618;28;20483;-80
2021/05/06 07:18:34;;;;;;;10.35;8.40;;;7.80;84.20;;;;;;2091374;28;20028;-81
2021/05/06 07:19:35;;;;;;;9.60;8.25;;;7.80;84.10;;;;;;2082346;28;20087;-81
2021/05/06 07:20:36;;;;;;;9.65;8.23;;;7.90;84.00;;;;;;2082675;28;20029;-81
2021/05/06 07:21:37;;;;;;;9.57;8.43;;;7.90;83.90;;;;;;2074355;28;20117;-81
2021/05/06 07:22:37;;;;;;;9.55;8.30;;;8.00;83.90;;;;;;2076006;28;20119;-81
2021/05/06 07:23:38;;;;;;;9.55;8.48;;;8.00;83.80;;;;;;2074019;28;20042;-81
2021/05/06 07:24:38;;;;;;;10.07;8.68;;;8.00;83.80;;;;;;2074057;28;20072;-81
2021/05/06 07:25:40;;;;;;;9.70;8.60;;;8.00;83.80;;;;;;2065148;28;20026;-81
2021/05/06 07:26:40;;;;;;;9.73;8.38;;;8.10;83.80;;;;;;2073015;28;21435;-81
2021/05/06 07:27:41;;;;;;;9.80;8.45;;;8.10;83.70;;;;;;2073850;28;20042;-81
2021/05/06 07:28:43;;;;;;;9.45;7.70;;;8.10;83.50;;;;;;2073986;28;20034;-81
2021/05/06 07:29:44;;;;;;;9.50;8.50;;;8.20;83.50;;;;;;2073856;28;20562;-81
2021/05/06 07:30:47;;;;;;;9.70;8.07;;;8.20;83.50;;;;;;2066019;28;20169;-81
2021/05/06 07:31:50;;;;;;;8.63;7.55;;;8.30;83.40;;;;;;2082142;28;20026;-81
2021/05/06 07:32:51;;;;;;;9.20;7.65;;;8.30;83.30;;;;;;2083536;28;20021;-81
2021/05/06 07:33:51;;;;;;;9.65;8.20;;;8.30;83.30;;;;;;2082533;28;20030;-81
2021/05/06 07:34:52;;;;;;;9.00;7.85;;;8.30;83.20;;;;;;2078130;28;20041;-80
2021/05/06 07:35:52;;;;;;;9.23;7.53;;;8.40;83.20;;;;;;2079834;28;20018;-81
2021/05/06 07:36:53;;;;;;;9.65;8.20;;;8.40;83.10;;;;;;2082966;28;20041;-83
2021/05/06 07:37:54;;;;;;;9.02;7.80;;;8.40;83.00;;;;;;2084732;28;20017;-83
2021/05/06 07:38:54;;;;;;;9.27;7.93;;;8.40;83.00;;;;;;2076231;28;20068;-82
2021/05/06 07:39:55;;;;;;;8.52;7.03;;;8.40;83.00;;;;;;2076496;28;20044;-82
2021/05/06 07:40:58;;;;;;;9.02;7.43;;;8.40;82.90;;;;;;2073940;28;20050;-81
2021/05/06 07:41:59;;;;;;;7.70;6.75;;;8.40;82.90;;;;;;2075429;28;20094;-82
2021/05/06 07:43:01;;;;;;;8.30;7.15;;;8.40;82.90;;;;;;2076654;28;20030;-82
2021/05/06 07:44:02;;;;;;;8.15;7.07;;;8.40;83.10;;;;;;2077112;28;20086;-82
2021/05/06 07:45:03;;;;;;;7.82;6.72;;;8.50;83.10;;;;;;2059335;28;20066;-81
2021/05/06 07:46:03;;;;;;;8.13;6.80;;;8.50;83.00;;;;;;2066747;28;20413;-83
2021/05/06 07:47:10;;;;;;;7.82;6.57;;;8.60;82.90;;;;;;2074530;28;20167;-82
2021/05/06 07:48:11;;;;;;;8.73;6.80;;;8.80;82.70;;;;;;2067366;28;20026;-82
2021/05/06 07:49:12;;;;;;;7.80;6.90;;;8.90;82.40;;;;;;2066300;28;20515;-83
2021/05/06 07:50:14;;;;;;;7.55;6.72;;;8.90;82.10;;;;;;2067028;28;20078;-80
2021/05/06 07:51:14;;;;;;;7.85;6.78;;;8.90;81.80;;;;;;2057652;28;20031;-82
2021/05/06 07:52:18;;;;;;;7.07;6.03;;;8.90;81.70;;;;;;2065162;28;20045;-82
2021/05/06 07:53:25;;;;;;;8.32;6.32;;;8.90;81.80;;;;;;2090287;28;20037;-82
2021/05/06 07:54:26;;;;;;;7.63;5.60;;;8.80;81.80;;;;;;2090088;28;20017;-82
2021/05/06 07:55:27;;;;;;;6.85;5.80;;;8.80;81.90;;;;;;2081615;28;20474;-82
2021/05/06 07:56:28;;;;;;;6.50;5.28;;;8.80;82.00;;;;;;2071887;28;20518;-82
2021/05/06 07:57:28;;;;;;;6.45;5.30;;;8.80;81.90;;;;;;2072767;28;20045;-82
2021/05/06 07:58:29;;;;;;;6.90;5.25;;;8.90;81.90;;;;;;2065673;28;20055;-82
2021/05/06 07:59:30;;;;;;;6.65;5.07;;;8.90;81.90;;;;;;2062050;28;20034;-80
2021/05/06 08:00:32;;;;;;;7.50;5.60;;;8.90;81.80;;;;;;2072840;28;20113;-82
2021/05/06 08:01:33;;;;;;;6.10;4.95;;;9.00;81.70;;;;;;2062335;28;20869;-82
2021/05/06 08:02:34;;;;;;;5.82;4.70;;;9.00;81.70;;;;;;2065845;28;20022;-83
2021/05/06 08:03:35;;;;;;;5.25;4.47;;;9.00;81.60;;;;;;2081092;28;20530;-80
2021/05/06 08:04:36;;;;;;;6.25;4.28;;;9.00;81.50;;;;;;2074461;28;20038;-80
2021/05/06 08:05:37;;;;;;;6.07;4.28;;;9.10;81.40;;;;;;2071471;28;20058;-81
2021/05/06 08:06:37;;;;;;;5.78;4.60;;;9.20;81.20;;;;;;2070442;28;20036;-81
2021/05/06 08:07:38;;;;;;;6.10;4.32;;;9.30;80.90;;;;;;2070824;28;20093;-82
2021/05/06 08:08:38;;;;;;;5.68;3.90;;;9.40;80.60;;;;;;2057358;28;20031;-82
2021/05/06 08:09:39;;;;;;;5.53;3.90;;;9.60;80.40;;;;;;2063318;28;20030;-81
2021/05/06 08:10:42;;;;;;;4.78;3.55;;;9.70;80.10;;;;;;2070857;28;20022;-82
2021/05/06 08:11:43;;;;;;;5.43;3.97;;;9.80;79.70;;;;;;2073016;28;20037;-81
2021/05/06 08:12:44;;;;;;;3.97;3.22;;;9.90;79.30;;;;;;2064675;28;20029;-82
2021/05/06 08:13:46;;;;;;;5.22;3.35;;;9.90;78.90;;;;;;2064141;28;20046;-83
2021/05/06 08:14:47;;;;;;;4.72;3.28;;;9.90;78.70;;;;;;2072392;28;20137;-83
2021/05/06 08:15:49;;;;;;;5.00;3.20;;;9.90;79.30;;;;;;2068070;28;20772;-82
2021/05/06 08:16:50;;;;;;;4.35;3.30;;;9.90;78.80;;;;;;2073020;28;20029;-82
2021/05/06 08:17:51;;;;;;;5.05;3.33;;;9.80;78.80;;;;;;2064904;28;20431;-82
2021/05/06 08:18:52;;;;;;;4.53;3.10;;;9.80;78.90;;;;;;2073253;28;20030;-81
2021/05/06 08:19:53;;;;;;;4.57;3.35;;;9.70;79.00;;;;;;2072462;28;20041;-82
2021/05/06 08:20:54;;;;;;;4.75;3.20;;;9.70;79.70;;;;;;2057186;28;20039;-81
2021/05/06 08:21:54;;;;;;;4.35;3.10;;;9.60;79.20;;;;;;2071055;28;20080;-82
2021/05/06 08:22:55;;;;;;;4.30;3.00;;;9.60;79.40;;;;;;2080564;28;20029;-81
2021/05/06 08:23:56;;;;;;;4.82;2.95;;;9.60;79.40;;;;;;2065071;28;20073;-81
2021/05/06 08:24:56;;;;;;;5.35;3.33;;;9.50;79.40;;;;;;2065500;28;20026;-81
2021/05/06 08:25:57;;;;;;;3.78;2.80;;;9.50;79.40;;;;;;2057493;28;20169;-81
2021/05/06 08:26:58;;;;;;;4.03;2.97;;;9.40;79.40;;;;;;2055650;28;20111;-81
2021/05/06 08:27:59;;;;;;;3.95;2.85;;;9.40;79.50;;;;;;2064876;28;20030;-81
2021/05/06 08:28:59;;;;;;;6.03;2.97;;;9.40;79.50;;;;;;2071684;28;20030;-81
2021/05/06 08:30:00;;;;;;;4.22;2.80;;;9.40;79.40;;;;;;2075185;28;20026;-81
2021/05/06 08:31:01;;;;;;;4.50;2.90;;;9.40;79.40;;;;;;2067110;28;20054;-81
2021/05/06 08:32:02;;;;;;;3.58;2.42;;;9.40;79.20;;;;;;2065506;28;20042;-81
2021/05/06 08:33:04;;;;;;;4.07;3.08;;;9.40;79.20;;;;;;2079464;28;20112;-81
2021/05/06 08:34:04;;;;;;;4.72;3.22;;;9.50;79.10;;;;;;2088581;28;20036;-81
2021/05/06 08:35:07;;;;;;;4.25;3.10;;;9.60;78.80;;;;;;2089145;28;20036;-81
2021/05/06 08:36:07;;;;;;;5.32;3.38;;;9.60;78.60;;;;;;2085100;28;20029;-82
2021/05/06 08:37:08;;;;;;;4.47;3.20;;;9.70;78.40;;;;;;2080365;28;20033;-82
2021/05/06 08:38:09;;;;;;;4.15;2.90;;;9.80;78.20;;;;;;2075465;28;20034;-82
2021/05/06 08:39:09;;;;;;;4.20;2.97;;;9.90;78.00;;;;;;2069321;28;20061;-82
2021/05/06 08:40:10;;;;;;;4.68;3.03;;;9.90;77.80;;;;;;2064968;28;20030;-82
2021/05/06 08:41:13;;;;;;;5.43;3.10;;;10.00;77.60;;;;;;2064758;28;20064;-82
2021/05/06 08:42:15;;;;;;;4.57;2.70;;;10.10;77.40;;;;;;2073590;28;20022;-82
2021/05/06 08:43:18;;;;;;;4.72;3.15;;;10.20;77.20;;;;;;2072302;28;20041;-82
2021/05/06 08:44:24;;;;;;;5.03;3.60;;;10.20;77.00;;;;;;2072800;28;20064;-83
2021/05/06 08:45:32;;;;;;;4.97;3.67;;;10.30;76.70;;;;;;2074107;28;20571;-82
2021/05/06 08:46:36;;;;;;;5.38;3.50;;;10.30;76.60;;;;;;2084341;28;20080;-82
2021/05/06 08:47:37;;;;;;;4.65;3.35;;;10.40;77.00;;;;;;2086340;28;20577;-83
2021/05/06 08:48:39;;;;;;;4.60;3.47;;;10.50;76.30;;;;;;2078551;28;20026;-82
2021/05/06 08:49:40;;;;;;;4.18;3.13;;;10.60;76.00;;;;;;2066439;28;20053;-83
2021/05/06 08:50:42;;;;;;;4.50;3.40;;;10.70;75.70;;;;;;2074331;28;20521;-83
2021/05/06 08:51:43;;;;;;;4.95;3.50;;;10.80;75.50;;;;;;2072867;28;20106;-83
2021/05/06 08:52:46;;;;;;;4.93;3.88;;;10.80;74.90;;;;;;2052029;28;20097;-83
2021/05/06 08:53:47;;;;;;;4.53;3.35;;;10.90;74.80;;;;;;2055031;28;20046;-81
2021/05/06 08:54:50;;;;;;;5.63;3.95;;;10.90;74.80;;;;;;2058847;28;20054;-81
2021/05/06 08:55:53;;;;;;;5.72;3.65;;;11.00;74.90;;;;;;2059152;28;20106;-80